sensor_id;sensor_type;location;lat;lon;timestamp;pressure;altitude;pressure_sealevel;temperature;humidity
28588;BME280;15787;49.662;10.162;2023-02-28T00:00:10;100119.00;;;-1.18;79.85
28588;BME280;15787;49.662;10.162;2023-02-28T00:02:45;100116.88;;;-1.68;80.02
28588;BME280;15787;49.662;10.162;2023-02-28T00:05:21;100110.25;;;-1.58;80.64
28588;BME280;15787;49.662;10.162;2023-02-28T00:07:54;100113.72;;;-1.32;81.00
28588;BME280;15787;49.662;10.162;2023-02-28T00:10:30;100109.88;;;-1.40;80.97
28588;BME280;15787;49.662;10.162;2023-02-28T00:13:05;100109.03;;;-1.32;80.64
28588;BME280;15787;49.662;10.162;2023-02-28T00:15:38;100108.22;;;-1.23;80.39
28588;BME280;15787;49.662;10.162;2023-02-28T00:18:11;100108.28;;;-1.49;80.60
28588;BME280;15787;49.662;10.162;2023-02-28T00:20:45;100111.06;;;-1.03;79.53
28588;BME280;15787;49.662;10.162;2023-02-28T00:23:18;100106.69;;;-1.04;79.43
28588;BME280;15787;49.662;10.162;2023-02-28T00:25:52;100110.22;;;-1.41;79.55
28588;BME280;15787;49.662;10.162;2023-02-28T00:28:25;100115.44;;;-1.10;79.44
28588;BME280;15787;49.662;10.162;2023-02-28T00:30:59;100112.94;;;-1.33;79.54
28588;BME280;15787;49.662;10.162;2023-02-28T00:33:33;100112.72;;;-1.19;79.49
28588;BME280;15787;49.662;10.162;2023-02-28T00:36:08;100111.41;;;-1.13;79.46
28588;BME280;15787;49.662;10.162;2023-02-28T00:38:41;100100.75;;;-1.06;79.37
28588;BME280;15787;49.662;10.162;2023-02-28T00:41:16;100107.56;;;-1.20;79.43
28588;BME280;15787;49.662;10.162;2023-02-28T00:43:49;100105.72;;;-0.99;79.31
28588;BME280;15787;49.662;10.162;2023-02-28T00:46:22;100106.28;;;-1.23;79.16
28588;BME280;15787;49.662;10.162;2023-02-28T00:48:55;100100.38;;;-0.96;79.21
28588;BME280;15787;49.662;10.162;2023-02-28T00:51:29;100108.50;;;-1.08;78.70
28588;BME280;15787;49.662;10.162;2023-02-28T00:54:03;100103.47;;;-1.06;78.87
28588;BME280;15787;49.662;10.162;2023-02-28T00:56:37;100107.50;;;-1.03;78.58
28588;BME280;15787;49.662;10.162;2023-02-28T00:59:10;100109.88;;;-1.40;79.17
28588;BME280;15787;49.662;10.162;2023-02-28T01:01:45;100105.50;;;-1.32;79.04
28588;BME280;15787;49.662;10.162;2023-02-28T01:04:18;100101.94;;;-1.24;78.90
28588;BME280;15787;49.662;10.162;2023-02-28T01:06:52;100105.03;;;-1.34;79.44
28588;BME280;15787;49.662;10.162;2023-02-28T01:09:24;100091.03;;;-1.41;79.64
28588;BME280;15787;49.662;10.162;2023-02-28T01:11:59;100098.44;;;-1.33;79.47
28588;BME280;15787;49.662;10.162;2023-02-28T01:14:32;100101.91;;;-1.07;79.12
28588;BME280;15787;49.662;10.162;2023-02-28T01:17:04;100103.63;;;-1.49;79.28
28588;BME280;15787;49.662;10.162;2023-02-28T01:19:37;100099.25;;;-1.41;80.04
28588;BME280;15787;49.662;10.162;2023-02-28T01:22:10;100094.78;;;-1.63;80.19
28588;BME280;15787;49.662;10.162;2023-02-28T01:24:43;100101.00;;;-1.37;80.26
28588;BME280;15787;49.662;10.162;2023-02-28T01:27:20;100091.41;;;-1.68;80.17
28588;BME280;15787;49.662;10.162;2023-02-28T01:29:53;100102.56;;;-1.27;80.18
28588;BME280;15787;49.662;10.162;2023-02-28T01:32:26;100095.41;;;-1.49;80.56
28588;BME280;15787;49.662;10.162;2023-02-28T01:34:59;100095.53;;;-1.37;80.18
28588;BME280;15787;49.662;10.162;2023-02-28T01:37:32;100088.66;;;-1.60;80.41
28588;BME280;15787;49.662;10.162;2023-02-28T01:40:06;100089.47;;;-1.59;80.86
28588;BME280;15787;49.662;10.162;2023-02-28T01:42:41;100091.84;;;-1.49;80.75
28588;BME280;15787;49.662;10.162;2023-02-28T01:45:22;100094.78;;;-1.63;80.77
28588;BME280;15787;49.662;10.162;2023-02-28T01:47:58;100097.50;;;-1.54;81.50
28588;BME280;15787;49.662;10.162;2023-02-28T01:50:36;100088.34;;;-1.58;81.05
28588;BME280;15787;49.662;10.162;2023-02-28T01:53:14;100085.56;;;-1.50;80.83
28588;BME280;15787;49.662;10.162;2023-02-28T01:55:50;100080.47;;;-1.68;81.47
28588;BME280;15787;49.662;10.162;2023-02-28T01:58:26;100081.88;;;-1.45;81.47
28588;BME280;15787;49.662;10.162;2023-02-28T02:01:00;100074.31;;;-1.57;81.28
28588;BME280;15787;49.662;10.162;2023-02-28T02:03:35;100076.22;;;-1.49;81.16
28588;BME280;15787;49.662;10.162;2023-02-28T02:06:08;100068.63;;;-1.43;81.14
28588;BME280;15787;49.662;10.162;2023-02-28T02:08:41;100069.03;;;-1.70;81.49
28588;BME280;15787;49.662;10.162;2023-02-28T02:11:17;100060.47;;;-1.60;81.48
28588;BME280;15787;49.662;10.162;2023-02-28T02:14:16;100058.88;;;-1.70;81.71
28588;BME280;15787;49.662;10.162;2023-02-28T02:17:04;100063.44;;;-1.91;81.30
28588;BME280;15787;49.662;10.162;2023-02-28T02:23:20;100056.66;;;-1.85;82.02
28588;BME280;15787;49.662;10.162;2023-02-28T02:26:12;100059.50;;;-1.56;82.33
28588;BME280;15787;49.662;10.162;2023-02-28T02:29:09;100055.56;;;-2.10;82.57
28588;BME280;15787;49.662;10.162;2023-02-28T02:32:01;100051.66;;;-2.00;82.95
28588;BME280;15787;49.662;10.162;2023-02-28T02:34:50;100042.13;;;-1.68;82.26
28588;BME280;15787;49.662;10.162;2023-02-28T02:37:30;100045.56;;;-1.88;81.93
28588;BME280;15787;49.662;10.162;2023-02-28T02:40:11;100043.47;;;-2.00;82.71
28588;BME280;15787;49.662;10.162;2023-02-28T02:42:50;100055.34;;;-1.87;81.94
28588;BME280;15787;49.662;10.162;2023-02-28T02:45:27;100050.22;;;-1.89;81.62
28588;BME280;15787;49.662;10.162;2023-02-28T02:48:11;100049.72;;;-1.74;81.48
28588;BME280;15787;49.662;10.162;2023-02-28T02:50:50;100046.63;;;-1.64;80.61
28588;BME280;15787;49.662;10.162;2023-02-28T02:53:26;100044.88;;;-1.85;80.42
28588;BME280;15787;49.662;10.162;2023-02-28T02:56:05;100047.50;;;-2.06;81.37
28588;BME280;15787;49.662;10.162;2023-02-28T02:58:41;100044.88;;;-1.77;80.59
28588;BME280;15787;49.662;10.162;2023-02-28T03:01:18;100045.22;;;-1.87;80.21
28588;BME280;15787;49.662;10.162;2023-02-28T03:04:02;100056.16;;;-1.87;80.72
28588;BME280;15787;49.662;10.162;2023-02-28T03:06:37;100058.91;;;-1.87;81.20
28588;BME280;15787;49.662;10.162;2023-02-28T03:09:10;100048.78;;;-2.04;80.75
28588;BME280;15787;49.662;10.162;2023-02-28T03:11:43;100054.88;;;-1.81;80.62
28588;BME280;15787;49.662;10.162;2023-02-28T03:14:25;100057.63;;;-1.98;80.81
28588;BME280;15787;49.662;10.162;2023-02-28T03:20:15;100060.06;;;-2.31;81.67
28588;BME280;15787;49.662;10.162;2023-02-28T03:22:59;100066.66;;;-2.32;81.95
28588;BME280;15787;49.662;10.162;2023-02-28T03:25:37;100060.84;;;-2.39;82.31
28588;BME280;15787;49.662;10.162;2023-02-28T03:28:21;100060.38;;;-2.41;82.29
28588;BME280;15787;49.662;10.162;2023-02-28T03:31:00;100054.44;;;-2.34;82.40
28588;BME280;15787;49.662;10.162;2023-02-28T03:33:39;100059.56;;;-2.41;82.32
28588;BME280;15787;49.662;10.162;2023-02-28T03:36:17;100062.28;;;-2.41;82.61
28588;BME280;15787;49.662;10.162;2023-02-28T03:38:57;100059.09;;;-2.52;82.79
28588;BME280;15787;49.662;10.162;2023-02-28T03:41:36;100059.25;;;-2.40;82.98
28588;BME280;15787;49.662;10.162;2023-02-28T03:44:13;100061.00;;;-2.52;83.39
28588;BME280;15787;49.662;10.162;2023-02-28T03:46:53;100060.19;;;-2.53;83.52
28588;BME280;15787;49.662;10.162;2023-02-28T03:49:32;100056.66;;;-2.36;83.84
28588;BME280;15787;49.662;10.162;2023-02-28T03:52:08;100059.06;;;-2.43;83.86
28588;BME280;15787;49.662;10.162;2023-02-28T03:54:45;100063.91;;;-2.40;83.66
28588;BME280;15787;49.662;10.162;2023-02-28T03:57:23;100065.84;;;-2.41;83.68
28588;BME280;15787;49.662;10.162;2023-02-28T04:00:03;100070.97;;;-2.48;82.92
28588;BME280;15787;49.662;10.162;2023-02-28T04:02:43;100061.97;;;-2.57;82.77
28588;BME280;15787;49.662;10.162;2023-02-28T04:05:16;100060.31;;;-2.67;82.94
28588;BME280;15787;49.662;10.162;2023-02-28T04:07:49;100069.03;;;-2.65;83.18
28588;BME280;15787;49.662;10.162;2023-02-28T04:10:23;100069.34;;;-2.75;83.38
28588;BME280;15787;49.662;10.162;2023-02-28T04:12:56;100062.59;;;-2.77;83.67
28588;BME280;15787;49.662;10.162;2023-02-28T04:15:29;100066.09;;;-2.77;84.06
28588;BME280;15787;49.662;10.162;2023-02-28T04:18:03;100070.94;;;-2.74;84.14
28588;BME280;15787;49.662;10.162;2023-02-28T04:20:36;100075.59;;;-2.83;83.40
28588;BME280;15787;49.662;10.162;2023-02-28T04:23:09;100079.25;;;-2.87;83.59
28588;BME280;15787;49.662;10.162;2023-02-28T04:25:44;100069.66;;;-2.76;84.00
28588;BME280;15787;49.662;10.162;2023-02-28T04:28:17;100075.81;;;-2.62;83.82
28588;BME280;15787;49.662;10.162;2023-02-28T04:30:54;100071.56;;;-2.85;83.50
28588;BME280;15787;49.662;10.162;2023-02-28T04:33:27;100080.56;;;-2.85;83.18
28588;BME280;15787;49.662;10.162;2023-02-28T04:36:02;100074.69;;;-3.09;82.93
28588;BME280;15787;49.662;10.162;2023-02-28T04:38:37;100082.56;;;-3.16;83.32
28588;BME280;15787;49.662;10.162;2023-02-28T04:41:12;100070.94;;;-3.22;83.38
28588;BME280;15787;49.662;10.162;2023-02-28T04:43:46;100074.31;;;-3.25;83.23
28588;BME280;15787;49.662;10.162;2023-02-28T04:46:19;100078.53;;;-3.18;83.55
28588;BME280;15787;49.662;10.162;2023-02-28T04:48:52;100073.34;;;-3.20;83.76
28588;BME280;15787;49.662;10.162;2023-02-28T04:51:26;100084.19;;;-3.06;84.09
28588;BME280;15787;49.662;10.162;2023-02-28T04:53:59;100077.44;;;-3.09;83.76
28588;BME280;15787;49.662;10.162;2023-02-28T04:56:33;100075.31;;;-3.12;83.62
28588;BME280;15787;49.662;10.162;2023-02-28T04:59:07;100071.38;;;-2.89;84.34
28588;BME280;15787;49.662;10.162;2023-02-28T05:01:39;100079.75;;;-2.85;84.22
28588;BME280;15787;49.662;10.162;2023-02-28T05:04:13;100073.97;;;-2.84;84.42
28588;BME280;15787;49.662;10.162;2023-02-28T05:06:46;100073.63;;;-2.91;84.25
28588;BME280;15787;49.662;10.162;2023-02-28T05:09:19;100076.25;;;-2.77;84.80
28588;BME280;15787;49.662;10.162;2023-02-28T05:11:54;100075.84;;;-3.01;84.31
28588;BME280;15787;49.662;10.162;2023-02-28T05:14:27;100077.59;;;-3.05;84.63
28588;BME280;15787;49.662;10.162;2023-02-28T05:17:00;100072.44;;;-3.07;84.96
28588;BME280;15787;49.662;10.162;2023-02-28T05:19:33;100081.78;;;-3.08;84.80
28588;BME280;15787;49.662;10.162;2023-02-28T05:22:13;100079.00;;;-3.16;84.75
28588;BME280;15787;49.662;10.162;2023-02-28T05:24:46;100083.50;;;-3.12;84.70
28588;BME280;15787;49.662;10.162;2023-02-28T05:27:21;100082.56;;;-3.16;84.65
28588;BME280;15787;49.662;10.162;2023-02-28T05:29:54;100090.53;;;-3.28;84.67
28588;BME280;15787;49.662;10.162;2023-02-28T05:32:27;100090.47;;;-3.06;85.23
28588;BME280;15787;49.662;10.162;2023-02-28T05:35:00;100090.88;;;-3.21;85.21
28588;BME280;15787;49.662;10.162;2023-02-28T05:37:33;100096.84;;;-3.19;85.20
28588;BME280;15787;49.662;10.162;2023-02-28T05:40:08;100093.97;;;-3.14;85.60
28588;BME280;15787;49.662;10.162;2023-02-28T05:42:44;100094.16;;;-3.10;85.34
28588;BME280;15787;49.662;10.162;2023-02-28T05:45:17;100091.91;;;-3.00;85.31
28588;BME280;15787;49.662;10.162;2023-02-28T05:47:53;100100.63;;;-2.98;85.17
28588;BME280;15787;49.662;10.162;2023-02-28T05:50:26;100098.66;;;-3.06;85.33
28588;BME280;15787;49.662;10.162;2023-02-28T05:52:59;100106.13;;;-3.20;84.96
28588;BME280;15787;49.662;10.162;2023-02-28T05:55:32;100102.50;;;-3.46;85.23
28588;BME280;15787;49.662;10.162;2023-02-28T05:58:09;100102.00;;;-3.09;85.77
28588;BME280;15787;49.662;10.162;2023-02-28T06:00:42;100102.63;;;-3.12;85.50
28588;BME280;15787;49.662;10.162;2023-02-28T06:03:16;100107.72;;;-3.28;85.55
28588;BME280;15787;49.662;10.162;2023-02-28T06:05:49;100105.69;;;-3.13;84.69
28588;BME280;15787;49.662;10.162;2023-02-28T06:08:24;100115.00;;;-3.45;84.68
28588;BME280;15787;49.662;10.162;2023-02-28T06:10:57;100114.31;;;-3.51;84.96
28588;BME280;15787;49.662;10.162;2023-02-28T06:13:31;100116.50;;;-3.39;84.72
28588;BME280;15787;49.662;10.162;2023-02-28T06:16:05;100123.25;;;-3.37;85.86
28588;BME280;15787;49.662;10.162;2023-02-28T06:18:38;100122.75;;;-3.39;86.23
28588;BME280;15787;49.662;10.162;2023-02-28T06:21:12;100118.13;;;-3.38;86.79
28588;BME280;15787;49.662;10.162;2023-02-28T06:23:45;100124.75;;;-3.31;86.60
28588;BME280;15787;49.662;10.162;2023-02-28T06:26:18;100116.72;;;-3.27;87.09
28588;BME280;15787;49.662;10.162;2023-02-28T06:28:53;100131.38;;;-3.23;87.46
28588;BME280;15787;49.662;10.162;2023-02-28T06:31:26;100121.03;;;-2.95;87.25
28588;BME280;15787;49.662;10.162;2023-02-28T06:34:01;100132.22;;;-3.14;86.74
28588;BME280;15787;49.662;10.162;2023-02-28T06:36:35;100130.69;;;-2.89;86.87
28588;BME280;15787;49.662;10.162;2023-02-28T06:39:08;100123.94;;;-2.92;86.98
28588;BME280;15787;49.662;10.162;2023-02-28T06:41:41;100126.53;;;-2.87;86.58
28588;BME280;15787;49.662;10.162;2023-02-28T06:44:27;100126.31;;;-2.99;86.38
28588;BME280;15787;49.662;10.162;2023-02-28T06:47:07;100134.47;;;-2.68;86.29
28588;BME280;15787;49.662;10.162;2023-02-28T06:49:40;100131.38;;;-2.84;86.25
28588;BME280;15787;49.662;10.162;2023-02-28T06:52:13;100130.78;;;-2.64;86.20
28588;BME280;15787;49.662;10.162;2023-02-28T06:54:47;100130.63;;;-2.67;86.33
28588;BME280;15787;49.662;10.162;2023-02-28T06:57:33;100137.09;;;-2.54;87.89
28588;BME280;15787;49.662;10.162;2023-02-28T07:00:09;100133.06;;;-2.48;88.50
28588;BME280;15787;49.662;10.162;2023-02-28T07:02:42;100135.72;;;-2.09;88.52
28588;BME280;15787;49.662;10.162;2023-02-28T07:05:16;100131.88;;;-1.91;87.97
28588;BME280;15787;49.662;10.162;2023-02-28T07:07:49;100136.22;;;-1.99;87.78
28588;BME280;15787;49.662;10.162;2023-02-28T07:10:24;100133.78;;;-1.92;87.08
28588;BME280;15787;49.662;10.162;2023-02-28T07:12:57;100136.97;;;-1.47;86.65
28588;BME280;15787;49.662;10.162;2023-02-28T07:15:31;100133.22;;;-1.25;85.27
28588;BME280;15787;49.662;10.162;2023-02-28T07:18:04;100142.31;;;-1.04;84.42
28588;BME280;15787;49.662;10.162;2023-02-28T07:20:37;100135.69;;;-0.94;83.65
28588;BME280;15787;49.662;10.162;2023-02-28T07:23:10;100138.84;;;-0.75;82.72
28588;BME280;15787;49.662;10.162;2023-02-28T07:25:44;100132.94;;;-0.56;82.04
28588;BME280;15787;49.662;10.162;2023-02-28T07:28:17;100136.91;;;-0.45;80.80
28588;BME280;15787;49.662;10.162;2023-02-28T07:30:51;100133.66;;;-0.39;79.82
28588;BME280;15787;49.662;10.162;2023-02-28T07:33:24;100139.03;;;-0.01;79.31
28588;BME280;15787;49.662;10.162;2023-02-28T07:36:00;100140.13;;;0.07;78.40
28588;BME280;15787;49.662;10.162;2023-02-28T07:38:34;100142.09;;;0.18;77.09
28588;BME280;15787;49.662;10.162;2023-02-28T07:41:07;100134.00;;;0.22;77.01
28588;BME280;15787;49.662;10.162;2023-02-28T07:43:41;100136.78;;;0.54;76.38
28588;BME280;15787;49.662;10.162;2023-02-28T07:46:16;100138.28;;;0.64;75.62
28588;BME280;15787;49.662;10.162;2023-02-28T07:48:51;100142.69;;;0.77;75.05
28588;BME280;15787;49.662;10.162;2023-02-28T07:51:27;100139.03;;;0.73;74.58
28588;BME280;15787;49.662;10.162;2023-02-28T07:54:01;100149.91;;;0.82;73.95
28588;BME280;15787;49.662;10.162;2023-02-28T07:56:34;100143.19;;;0.91;73.34
28588;BME280;15787;49.662;10.162;2023-02-28T07:59:07;100141.63;;;1.14;73.56
28588;BME280;15787;49.662;10.162;2023-02-28T08:01:42;100136.59;;;1.28;73.33
28588;BME280;15787;49.662;10.162;2023-02-28T08:04:16;100143.81;;;1.33;72.40
28588;BME280;15787;49.662;10.162;2023-02-28T08:06:50;100148.63;;;1.48;71.86
28588;BME280;15787;49.662;10.162;2023-02-28T08:09:24;100149.88;;;1.63;71.82
28588;BME280;15787;49.662;10.162;2023-02-28T08:11:57;100149.19;;;1.90;71.74
28588;BME280;15787;49.662;10.162;2023-02-28T08:14:30;100145.84;;;1.97;70.36
28588;BME280;15787;49.662;10.162;2023-02-28T08:17:05;100151.59;;;1.91;69.29
28588;BME280;15787;49.662;10.162;2023-02-28T08:19:39;100155.84;;;1.89;69.74
28588;BME280;15787;49.662;10.162;2023-02-28T08:22:12;100150.06;;;2.18;69.24
28588;BME280;15787;49.662;10.162;2023-02-28T08:24:45;100157.66;;;1.97;68.70
28588;BME280;15787;49.662;10.162;2023-02-28T08:27:19;100152.81;;;2.18;68.98
28588;BME280;15787;49.662;10.162;2023-02-28T08:29:52;100163.63;;;1.99;68.82
28588;BME280;15787;49.662;10.162;2023-02-28T08:32:27;100152.69;;;2.15;68.66
28588;BME280;15787;49.662;10.162;2023-02-28T08:35:01;100150.41;;;2.44;68.11
28588;BME280;15787;49.662;10.162;2023-02-28T08:37:37;100158.47;;;2.37;67.84
28588;BME280;15787;49.662;10.162;2023-02-28T08:40:11;100152.03;;;1.93;67.10
28588;BME280;15787;49.662;10.162;2023-02-28T08:42:49;100150.00;;;2.30;67.62
28588;BME280;15787;49.662;10.162;2023-02-28T08:45:22;100155.72;;;1.98;66.49
28588;BME280;15787;49.662;10.162;2023-02-28T08:47:57;100149.53;;;2.40;67.54
28588;BME280;15787;49.662;10.162;2023-02-28T08:50:30;100153.03;;;2.53;67.00
28588;BME280;15787;49.662;10.162;2023-02-28T08:53:03;100153.97;;;2.45;66.43
28588;BME280;15787;49.662;10.162;2023-02-28T08:55:36;100152.38;;;2.44;66.11
28588;BME280;15787;49.662;10.162;2023-02-28T08:58:09;100152.91;;;2.77;66.71
28588;BME280;15787;49.662;10.162;2023-02-28T09:00:41;100153.47;;;2.83;65.59
28588;BME280;15787;49.662;10.162;2023-02-28T09:03:16;100154.41;;;3.18;66.44
28588;BME280;15787;49.662;10.162;2023-02-28T09:05:53;100155.91;;;3.15;65.35
28588;BME280;15787;49.662;10.162;2023-02-28T09:08:29;100156.69;;;3.00;64.78
28588;BME280;15787;49.662;10.162;2023-02-28T09:11:03;100154.03;;;3.04;64.96
28588;BME280;15787;49.662;10.162;2023-02-28T09:13:37;100157.16;;;3.34;64.99
28588;BME280;15787;49.662;10.162;2023-02-28T09:16:13;100156.88;;;2.92;64.10
28588;BME280;15787;49.662;10.162;2023-02-28T09:18:48;100151.69;;;2.90;64.52
28588;BME280;15787;49.662;10.162;2023-02-28T09:21:21;100147.38;;;3.20;65.21
28588;BME280;15787;49.662;10.162;2023-02-28T09:23:54;100147.84;;;3.23;64.63
28588;BME280;15787;49.662;10.162;2023-02-28T09:26:27;100151.31;;;3.35;64.70
28588;BME280;15787;49.662;10.162;2023-02-28T09:29:13;100147.91;;;3.57;63.93
28588;BME280;15787;49.662;10.162;2023-02-28T09:31:49;100153.06;;;3.59;63.20
28588;BME280;15787;49.662;10.162;2023-02-28T09:34:23;100149.59;;;3.46;63.69
28588;BME280;15787;49.662;10.162;2023-02-28T09:36:56;100148.44;;;3.32;63.63
28588;BME280;15787;49.662;10.162;2023-02-28T09:39:30;100152.91;;;3.05;63.76
28588;BME280;15787;49.662;10.162;2023-02-28T09:42:04;100151.09;;;3.59;64.06
28588;BME280;15787;49.662;10.162;2023-02-28T09:44:43;100149.13;;;3.91;63.23
28588;BME280;15787;49.662;10.162;2023-02-28T09:47:27;100146.84;;;4.31;62.43
28588;BME280;15787;49.662;10.162;2023-02-28T09:50:14;100140.34;;;4.43;61.76
28588;BME280;15787;49.662;10.162;2023-02-28T09:52:50;100153.75;;;4.41;61.34
28588;BME280;15787;49.662;10.162;2023-02-28T09:55:28;100147.94;;;4.27;60.61
28588;BME280;15787;49.662;10.162;2023-02-28T09:58:19;100149.56;;;3.77;61.48
28588;BME280;15787;49.662;10.162;2023-02-28T10:00:59;100152.78;;;4.14;61.29
28588;BME280;15787;49.662;10.162;2023-02-28T10:03:39;100160.47;;;4.05;60.73
28588;BME280;15787;49.662;10.162;2023-02-28T10:06:19;100160.38;;;3.67;61.85
28588;BME280;15787;49.662;10.162;2023-02-28T10:08:58;100166.09;;;3.27;61.49
28588;BME280;15787;49.662;10.162;2023-02-28T10:11:35;100167.41;;;3.64;62.16
28588;BME280;15787;49.662;10.162;2023-02-28T10:14:13;100163.50;;;4.35;61.11
28588;BME280;15787;49.662;10.162;2023-02-28T10:16:51;100153.22;;;4.16;60.69
28588;BME280;15787;49.662;10.162;2023-02-28T10:19:31;100152.88;;;4.75;61.16
28588;BME280;15787;49.662;10.162;2023-02-28T10:22:12;100147.44;;;5.01;59.54
28588;BME280;15787;49.662;10.162;2023-02-28T10:24:49;100147.94;;;4.65;59.57
28588;BME280;15787;49.662;10.162;2023-02-28T10:27:24;100145.28;;;4.15;59.40
28588;BME280;15787;49.662;10.162;2023-02-28T10:30:00;100153.34;;;3.38;59.32
28588;BME280;15787;49.662;10.162;2023-02-28T10:32:38;100147.47;;;3.55;59.94
28588;BME280;15787;49.662;10.162;2023-02-28T10:35:16;100149.97;;;3.95;60.38
28588;BME280;15787;49.662;10.162;2023-02-28T10:37:54;100140.66;;;4.38;60.38
28588;BME280;15787;49.662;10.162;2023-02-28T10:40:33;100140.44;;;4.46;59.50
28588;BME280;15787;49.662;10.162;2023-02-28T10:43:19;100149.22;;;4.90;59.84
28588;BME280;15787;49.662;10.162;2023-02-28T10:45:59;100141.66;;;4.68;58.83
28588;BME280;15787;49.662;10.162;2023-02-28T10:48:37;100148.66;;;4.43;58.89
28588;BME280;15787;49.662;10.162;2023-02-28T10:51:12;100137.22;;;4.83;60.13
28588;BME280;15787;49.662;10.162;2023-02-28T10:53:49;100139.16;;;5.24;59.27
28588;BME280;15787;49.662;10.162;2023-02-28T10:56:32;100144.75;;;5.28;57.93
28588;BME280;15787;49.662;10.162;2023-02-28T10:59:26;100150.09;;;4.18;58.57
28588;BME280;15787;49.662;10.162;2023-02-28T11:02:00;100142.88;;;4.13;59.71
28588;BME280;15787;49.662;10.162;2023-02-28T11:04:35;100154.63;;;3.91;59.83
28588;BME280;15787;49.662;10.162;2023-02-28T11:07:19;100151.94;;;4.29;60.44
28588;BME280;15787;49.662;10.162;2023-02-28T11:09:58;100144.63;;;4.79;60.07
28588;BME280;15787;49.662;10.162;2023-02-28T11:12:36;100147.00;;;4.99;59.41
28588;BME280;15787;49.662;10.162;2023-02-28T11:15:25;100137.94;;;4.61;58.44
28588;BME280;15787;49.662;10.162;2023-02-28T11:18:01;100139.56;;;5.03;59.55
28588;BME280;15787;49.662;10.162;2023-02-28T11:20:35;100145.59;;;5.09;58.51
28588;BME280;15787;49.662;10.162;2023-02-28T11:23:12;100143.56;;;4.64;58.79
28588;BME280;15787;49.662;10.162;2023-02-28T11:25:51;100126.59;;;4.85;59.24
28588;BME280;15787;49.662;10.162;2023-02-28T11:28:28;100139.09;;;5.21;59.84
28588;BME280;15787;49.662;10.162;2023-02-28T11:31:09;100132.31;;;5.63;59.10
28588;BME280;15787;49.662;10.162;2023-02-28T11:33:49;100130.22;;;5.34;57.08
28588;BME280;15787;49.662;10.162;2023-02-28T11:36:26;100134.91;;;5.53;58.39
28588;BME280;15787;49.662;10.162;2023-02-28T11:39:08;100133.53;;;5.66;56.69
28588;BME280;15787;49.662;10.162;2023-02-28T11:42:07;100136.06;;;5.52;57.08
28588;BME280;15787;49.662;10.162;2023-02-28T11:44:58;100136.63;;;5.38;55.90
28588;BME280;15787;49.662;10.162;2023-02-28T11:47:37;100128.94;;;6.29;56.67
28588;BME280;15787;49.662;10.162;2023-02-28T11:50:26;100134.22;;;6.38;56.29
28588;BME280;15787;49.662;10.162;2023-02-28T11:53:16;100130.47;;;5.97;56.52
28588;BME280;15787;49.662;10.162;2023-02-28T11:55:58;100121.19;;;6.42;57.40
28588;BME280;15787;49.662;10.162;2023-02-28T11:58:48;100133.47;;;5.62;56.70
28588;BME280;15787;49.662;10.162;2023-02-28T12:01:40;100121.81;;;5.76;57.40
28588;BME280;15787;49.662;10.162;2023-02-28T12:04:25;100128.72;;;5.63;57.61
28588;BME280;15787;49.662;10.162;2023-02-28T12:07:05;100127.03;;;5.09;57.29
28588;BME280;15787;49.662;10.162;2023-02-28T12:09:44;100130.91;;;5.05;57.90
28588;BME280;15787;49.662;10.162;2023-02-28T12:12:29;100126.63;;;4.88;58.19
28588;BME280;15787;49.662;10.162;2023-02-28T12:18:30;100112.00;;;6.08;57.38
28588;BME280;15787;49.662;10.162;2023-02-28T12:21:15;100117.19;;;6.10;57.70
28588;BME280;15787;49.662;10.162;2023-02-28T12:24:00;100112.28;;;6.29;56.92
28588;BME280;15787;49.662;10.162;2023-02-28T12:26:37;100107.19;;;6.05;55.63
28588;BME280;15787;49.662;10.162;2023-02-28T12:29:16;100106.16;;;6.47;56.02
28588;BME280;15787;49.662;10.162;2023-02-28T12:31:54;100113.06;;;6.60;56.25
28588;BME280;15787;49.662;10.162;2023-02-28T12:34:34;100104.75;;;6.60;55.82
28588;BME280;15787;49.662;10.162;2023-02-28T12:37:13;100109.66;;;6.10;56.98
28588;BME280;15787;49.662;10.162;2023-02-28T12:39:51;100100.97;;;6.12;57.61
28588;BME280;15787;49.662;10.162;2023-02-28T12:42:33;100105.09;;;6.25;56.66
28588;BME280;15787;49.662;10.162;2023-02-28T12:45:13;100104.13;;;5.84;56.12
28588;BME280;15787;49.662;10.162;2023-02-28T12:47:50;100105.34;;;5.60;56.94
28588;BME280;15787;49.662;10.162;2023-02-28T12:50:27;100096.94;;;5.80;57.00
28588;BME280;15787;49.662;10.162;2023-02-28T12:53:06;100089.84;;;6.42;58.31
28588;BME280;15787;49.662;10.162;2023-02-28T12:55:46;100090.56;;;6.35;55.32
28588;BME280;15787;49.662;10.162;2023-02-28T12:58:29;100090.06;;;6.59;56.50
28588;BME280;15787;49.662;10.162;2023-02-28T13:01:24;100088.34;;;6.81;55.63
28588;BME280;15787;49.662;10.162;2023-02-28T13:04:42;100091.19;;;6.55;54.86
28588;BME280;15787;49.662;10.162;2023-02-28T13:07:53;100085.94;;;7.23;55.29
28588;BME280;15787;49.662;10.162;2023-02-28T13:10:40;100091.34;;;6.69;55.38
28588;BME280;15787;49.662;10.162;2023-02-28T13:13:18;100091.69;;;6.30;55.18
28588;BME280;15787;49.662;10.162;2023-02-28T13:16:01;100098.53;;;6.07;55.73
28588;BME280;15787;49.662;10.162;2023-02-28T13:18:36;100095.44;;;5.86;55.59
28588;BME280;15787;49.662;10.162;2023-02-28T13:21:24;100087.41;;;6.36;56.45
28588;BME280;15787;49.662;10.162;2023-02-28T13:24:03;100089.97;;;6.85;55.49
28588;BME280;15787;49.662;10.162;2023-02-28T13:27:17;100088.56;;;6.69;55.29
28588;BME280;15787;49.662;10.162;2023-02-28T13:29:56;100080.00;;;7.25;55.14
28588;BME280;15787;49.662;10.162;2023-02-28T13:32:35;100074.22;;;6.96;54.31
28588;BME280;15787;49.662;10.162;2023-02-28T13:38:23;100073.88;;;7.02;54.95
28588;BME280;15787;49.662;10.162;2023-02-28T13:44:12;100077.84;;;7.51;54.26
28588;BME280;15787;49.662;10.162;2023-02-28T13:47:21;100073.66;;;6.84;54.81
28588;BME280;15787;49.662;10.162;2023-02-28T13:50:14;100063.41;;;7.32;54.44
28588;BME280;15787;49.662;10.162;2023-02-28T13:52:57;100066.81;;;7.65;54.13